createdAt,value
2018-07-05T00:02:09.033Z,23.00
2018-07-05T00:04:48.936Z,22.90
2018-07-05T00:07:29.692Z,23.00
2018-07-05T00:10:09.859Z,23.00
2018-07-05T00:12:50.805Z,23.00
2018-07-05T00:15:30.815Z,22.90
2018-07-05T00:18:10.872Z,22.80
2018-07-05T00:20:51.919Z,22.80
2018-07-05T00:23:33.134Z,22.70
2018-07-05T00:26:13.188Z,22.70
2018-07-05T00:28:53.188Z,22.70
2018-07-05T00:31:33.324Z,22.70
2018-07-05T00:34:13.346Z,22.70
2018-07-05T00:36:53.317Z,22.60
2018-07-05T00:39:33.339Z,22.60
2018-07-05T00:42:13.452Z,22.50
2018-07-05T00:44:56.628Z,22.50
2018-07-05T00:47:37.864Z,22.50
2018-07-05T00:50:18.005Z,22.40
2018-07-05T00:52:58.256Z,22.40
2018-07-05T00:55:37.487Z,22.40
2018-07-05T00:58:17.554Z,22.40
2018-07-05T01:00:58.397Z,22.40
2018-07-05T01:03:38.472Z,22.30
2018-07-05T01:06:18.433Z,22.30
2018-07-05T01:08:58.361Z,22.20
2018-07-05T01:11:38.469Z,22.30
2018-07-05T01:14:18.557Z,22.10
2018-07-05T01:16:58.770Z,22.10
2018-07-05T01:19:38.719Z,22.10
2018-07-05T01:22:18.854Z,22.10
2018-07-05T01:24:59.737Z,22.10
2018-07-05T01:27:39.981Z,22.20
2018-07-05T01:30:20.867Z,22.20
2018-07-05T01:33:01.427Z,22.10
2018-07-05T01:35:41.465Z,22.10
2018-07-05T01:38:25.462Z,22.10
2018-07-05T01:41:05.674Z,21.90
2018-07-05T01:43:45.681Z,21.90
2018-07-05T01:46:25.902Z,21.80
2018-07-05T01:49:06.314Z,21.80
2018-07-05T01:51:46.410Z,21.70
2018-07-05T01:54:27.521Z,21.80
2018-07-05T01:57:07.668Z,21.80
2018-07-05T01:59:49.845Z,21.60
2018-07-05T02:02:30.612Z,21.60
2018-07-05T02:05:10.712Z,21.50
2018-07-05T02:07:51.945Z,21.50
2018-07-05T02:10:32.133Z,21.50
2018-07-05T02:13:12.267Z,21.60
2018-07-05T02:15:52.118Z,21.50
2018-07-05T02:18:32.268Z,21.80
2018-07-05T02:21:12.270Z,21.70
2018-07-05T02:23:52.454Z,21.70
2018-07-05T02:26:32.631Z,21.70
2018-07-05T02:29:12.791Z,21.70
2018-07-05T02:31:52.866Z,21.80
2018-07-05T02:34:33.061Z,21.80
2018-07-05T02:37:13.120Z,21.80
2018-07-05T02:39:53.356Z,21.80
2018-07-05T02:42:33.365Z,21.90
2018-07-05T02:45:13.459Z,21.90
2018-07-05T02:47:53.717Z,21.80
2018-07-05T02:50:35.318Z,21.70
2018-07-05T02:53:14.608Z,21.70
2018-07-05T02:55:54.758Z,21.70
2018-07-05T02:58:34.867Z,21.60
2018-07-05T03:01:15.018Z,21.60
2018-07-05T03:03:55.091Z,21.50
2018-07-05T03:06:35.204Z,21.50
2018-07-05T03:09:15.248Z,21.50
2018-07-05T03:11:55.384Z,21.50
2018-07-05T03:14:39.109Z,21.50
2018-07-05T03:17:19.285Z,21.40
2018-07-05T03:19:59.766Z,21.30
2018-07-05T03:22:39.938Z,21.40
2018-07-05T03:25:20.786Z,21.40
2018-07-05T03:28:00.905Z,21.20
2018-07-05T03:30:41.022Z,21.10
2018-07-05T03:33:21.058Z,21.00
2018-07-05T03:36:01.369Z,21.20
2018-07-05T03:38:41.407Z,21.20
2018-07-05T03:41:21.664Z,21.00
2018-07-05T03:44:01.769Z,20.90
2018-07-05T03:46:41.865Z,21.00
2018-07-05T03:49:22.072Z,21.00
2018-07-05T03:52:02.110Z,20.90
2018-07-05T03:54:42.229Z,21.00
2018-07-05T03:57:22.204Z,20.90
2018-07-05T04:00:02.343Z,21.20
2018-07-05T04:02:42.626Z,21.10
2018-07-05T04:05:22.976Z,21.10
2018-07-05T04:08:02.285Z,21.00
2018-07-05T04:10:42.547Z,21.10
2018-07-05T04:13:24.992Z,21.10
2018-07-05T04:16:05.546Z,21.20
2018-07-05T04:18:45.685Z,21.20
2018-07-05T04:21:25.712Z,21.20
2018-07-05T04:24:05.912Z,21.10
2018-07-05T04:26:46.026Z,21.10
2018-07-05T04:29:26.083Z,21.10
2018-07-05T04:32:06.224Z,21.20
2018-07-05T04:34:46.216Z,21.10
2018-07-05T04:37:26.314Z,21.10
2018-07-05T04:40:06.424Z,21.00
2018-07-05T04:42:46.669Z,21.00
2018-07-05T04:45:26.825Z,20.90
2018-07-05T04:48:07.357Z,21.00
2018-07-05T04:50:47.534Z,21.00
2018-07-05T04:53:26.829Z,20.90
2018-07-05T04:56:06.996Z,21.00
2018-07-05T04:58:47.086Z,21.10
2018-07-05T05:01:27.072Z,21.00
2018-07-05T05:04:07.752Z,21.10
2018-07-05T05:06:48.062Z,21.20
2018-07-05T05:09:28.151Z,21.30
2018-07-05T05:12:08.441Z,21.20
2018-07-05T05:14:48.701Z,21.00
2018-07-05T05:17:28.698Z,21.00
2018-07-05T05:20:08.784Z,20.90
2018-07-05T05:22:48.774Z,20.90
2018-07-05T05:25:29.409Z,21.00
2018-07-05T05:28:09.541Z,21.10
2018-07-05T05:30:49.717Z,20.90
2018-07-05T05:33:29.848Z,20.90
2018-07-05T05:36:10.021Z,20.90
2018-07-05T05:38:50.573Z,20.80
2018-07-05T05:41:31.119Z,20.90
2018-07-05T05:44:10.395Z,20.90
2018-07-05T05:46:51.353Z,21.10
2018-07-05T05:49:31.480Z,21.00
2018-07-05T05:52:12.417Z,20.90
2018-07-05T05:54:52.493Z,20.90
2018-07-05T05:57:32.714Z,20.80
2018-07-05T06:00:12.887Z,20.80
2018-07-05T06:02:52.181Z,20.80
2018-07-05T06:05:32.229Z,21.00
2018-07-05T06:08:12.417Z,20.90
2018-07-05T06:10:52.487Z,20.90
2018-07-05T06:13:32.468Z,20.80
2018-07-05T06:16:12.561Z,20.60
2018-07-05T06:18:56.470Z,20.30
2018-07-05T06:21:36.679Z,19.90
2018-07-05T06:24:16.708Z,20.10
2018-07-05T06:26:56.767Z,20.00
2018-07-05T06:29:38.211Z,20.10
2018-07-05T06:32:18.286Z,20.10
2018-07-05T06:34:58.446Z,20.10
2018-07-05T06:37:38.516Z,20.30
2018-07-05T06:40:18.709Z,20.40
2018-07-05T06:42:58.743Z,20.50
2018-07-05T06:48:34.553Z,20.80
2018-07-05T06:51:15.593Z,21.00
2018-07-05T06:53:55.744Z,21.00
2018-07-05T06:56:46.088Z,21.20
2018-07-05T06:59:27.105Z,21.30
2018-07-05T07:02:15.890Z,21.60
2018-07-05T07:05:04.266Z,21.60
2018-07-05T07:07:44.320Z,21.50
2018-07-05T07:10:24.336Z,21.40
2018-07-05T07:13:04.503Z,21.30
2018-07-05T07:15:45.725Z,21.40
2018-07-05T07:18:26.813Z,21.50
2018-07-05T07:21:08.073Z,21.70
2018-07-05T07:23:48.212Z,21.70
2018-07-05T07:26:34.961Z,21.60
2018-07-05T07:29:15.121Z,21.40
2018-07-05T07:31:55.361Z,21.50
2018-07-05T07:34:35.585Z,21.30
2018-07-05T07:37:15.789Z,21.40
2018-07-05T07:39:56.060Z,21.50
2018-07-05T07:42:23.884Z,21.60
2018-07-05T07:44:58.893Z,21.70
2018-07-05T07:47:26.706Z,21.70
2018-07-05T07:49:58.773Z,21.70
2018-07-05T07:52:26.598Z,21.70
2018-07-05T07:54:57.633Z,21.70
2018-07-05T07:57:25.432Z,21.70
2018-07-05T07:59:53.205Z,21.80
2018-07-05T08:02:21.771Z,21.70
2018-07-05T08:04:49.609Z,21.70
2018-07-05T08:07:17.386Z,21.70
2018-07-05T08:09:45.165Z,21.80
2018-07-05T08:12:12.969Z,21.90
2018-07-05T08:14:40.732Z,22.10
2018-07-05T08:17:08.537Z,22.30
2018-07-05T08:19:36.313Z,22.40
2018-07-05T08:22:04.115Z,22.30
2018-07-05T08:24:31.890Z,22.20
2018-07-05T08:27:00.366Z,22.20
2018-07-05T08:29:28.129Z,22.40
2018-07-05T08:31:55.940Z,22.60
2018-07-05T08:34:23.739Z,22.70
2018-07-05T08:36:52.527Z,22.90
2018-07-05T08:39:20.337Z,23.10
2018-07-05T08:41:48.101Z,23.10
2018-07-05T08:44:15.915Z,23.30
2018-07-05T08:46:43.693Z,23.40
2018-07-05T08:49:11.492Z,23.40
2018-07-05T08:51:39.265Z,23.50
2018-07-05T08:54:07.070Z,23.40
2018-07-05T08:56:34.839Z,23.50
2018-07-05T08:59:02.630Z,23.60
2018-07-05T09:01:30.390Z,23.60
2018-07-05T09:03:58.190Z,23.50
2018-07-05T09:06:25.991Z,23.50
2018-07-05T09:08:53.769Z,23.50
2018-07-05T09:11:22.866Z,23.50
2018-07-05T09:13:49.931Z,23.50
2018-07-05T09:16:17.701Z,23.60
2018-07-05T09:18:45.508Z,23.80
2018-07-05T09:21:19.382Z,23.90
2018-07-05T09:23:47.196Z,24.10
2018-07-05T09:26:23.053Z,24.30
2018-07-05T09:28:52.590Z,24.50
2018-07-05T09:31:20.350Z,24.70
2018-07-05T09:33:48.149Z,24.70
2018-07-05T09:36:15.921Z,24.80
2018-07-05T09:38:43.713Z,24.80
2018-07-05T09:41:11.480Z,25.10
2018-07-05T09:43:38.609Z,25.00
2018-07-05T09:46:06.396Z,25.00
2018-07-05T09:48:34.160Z,25.00
2018-07-05T09:51:01.957Z,25.10
2018-07-05T09:53:30.821Z,24.90
2018-07-05T09:55:58.613Z,24.90
2018-07-05T09:58:26.377Z,24.90
2018-07-05T10:00:54.180Z,24.90
2018-07-05T10:03:22.865Z,25.10
2018-07-05T10:05:50.589Z,25.10
2018-07-05T10:08:22.592Z,25.00
2018-07-05T10:10:50.353Z,25.20
2018-07-05T10:13:18.176Z,25.40
2018-07-05T10:15:45.928Z,25.60
2018-07-05T10:18:13.731Z,25.80
2018-07-05T10:20:41.504Z,25.70
2018-07-05T10:23:09.302Z,25.70
2018-07-05T10:25:37.066Z,25.60
2018-07-05T10:28:04.867Z,25.60
2018-07-05T10:30:44.894Z,25.60
2018-07-05T10:33:25.049Z,26.00
2018-07-05T10:35:52.852Z,26.10
2018-07-05T10:38:20.625Z,26.20
2018-07-05T10:41:01.841Z,26.10
2018-07-05T10:43:41.845Z,26.20
2018-07-05T10:46:22.881Z,26.30
2018-07-05T10:49:02.933Z,26.50
2018-07-05T10:51:43.065Z,26.50
2018-07-05T10:54:24.066Z,26.70
2018-07-05T10:57:04.951Z,26.90
2018-07-05T10:59:45.910Z,26.60
2018-07-05T11:02:25.996Z,26.70
2018-07-05T11:05:05.946Z,26.70
2018-07-05T11:07:45.949Z,26.50
2018-07-05T11:10:25.965Z,26.50
2018-07-05T11:13:06.105Z,26.50
2018-07-05T11:15:46.156Z,26.50
2018-07-05T11:18:26.350Z,26.50
2018-07-05T11:21:06.370Z,26.20
2018-07-05T11:23:46.496Z,26.20
2018-07-05T11:26:26.454Z,26.20
2018-07-05T11:29:06.549Z,26.40
2018-07-05T11:31:46.640Z,26.50
2018-07-05T11:34:27.692Z,26.50
2018-07-05T11:37:07.830Z,26.60
2018-07-05T11:39:48.437Z,26.70
2018-07-05T11:42:28.414Z,26.70
2018-07-05T11:45:08.494Z,26.50
2018-07-05T11:47:48.692Z,26.60
2018-07-05T11:50:29.192Z,26.60
2018-07-05T11:53:09.372Z,27.00
2018-07-05T11:55:48.785Z,27.00
2018-07-05T11:58:28.897Z,27.20
2018-07-05T12:01:08.994Z,27.10
2018-07-05T12:03:48.986Z,26.90
2018-07-05T12:06:29.191Z,26.80
2018-07-05T12:09:08.624Z,26.70
2018-07-05T12:11:48.826Z,27.00
2018-07-05T12:14:32.833Z,27.20
2018-07-05T12:17:12.931Z,27.40
2018-07-05T12:19:53.037Z,27.40
2018-07-05T12:22:32.997Z,27.40
2018-07-05T12:25:13.214Z,27.40
2018-07-05T12:27:53.835Z,27.40
2018-07-05T12:30:34.026Z,27.50
2018-07-05T12:33:14.185Z,27.70
2018-07-05T12:35:55.148Z,27.70
2018-07-05T12:38:35.398Z,27.80
2018-07-05T12:41:19.073Z,27.90
2018-07-05T12:44:02.597Z,27.70
2018-07-05T12:46:48.670Z,27.60
2018-07-05T12:49:29.180Z,27.50
2018-07-05T12:52:12.913Z,27.60
2018-07-05T12:54:53.117Z,27.90
2018-07-05T12:57:35.325Z,28.10
2018-07-05T13:00:17.458Z,28.30
2018-07-05T13:02:57.868Z,28.20
2018-07-05T13:05:38.022Z,27.90
2018-07-05T13:08:18.408Z,27.80
2018-07-05T13:10:59.974Z,27.80
2018-07-05T13:13:40.162Z,27.90
2018-07-05T13:16:22.649Z,28.10
2018-07-05T13:19:06.030Z,28.30
2018-07-05T13:21:53.055Z,28.40
2018-07-05T13:24:33.286Z,28.40
2018-07-05T13:27:13.337Z,28.30
2018-07-05T13:29:53.533Z,28.20
2018-07-05T13:32:33.686Z,28.40
2018-07-05T13:35:13.830Z,28.60
2018-07-05T13:37:53.947Z,28.90
2018-07-05T13:40:34.592Z,28.80
2018-07-05T13:43:14.824Z,28.70
2018-07-05T13:45:54.829Z,28.50
2018-07-05T13:48:35.021Z,28.40
2018-07-05T13:51:15.029Z,28.00
2018-07-05T13:53:55.217Z,27.90
2018-07-05T13:56:34.373Z,27.90
2018-07-05T13:59:14.579Z,27.70
2018-07-05T14:01:54.616Z,27.80
2018-07-05T14:04:37.760Z,27.90
2018-07-05T14:07:17.777Z,28.00
2018-07-05T14:09:57.766Z,28.10
2018-07-05T14:12:37.830Z,28.20
2018-07-05T14:15:17.895Z,28.10
2018-07-05T14:17:57.992Z,28.20
2018-07-05T14:20:38.345Z,28.30
2018-07-05T14:23:18.623Z,28.50
2018-07-05T14:25:58.617Z,28.50
2018-07-05T14:28:38.053Z,28.50
2018-07-05T14:31:18.025Z,28.40
2018-07-05T14:33:58.148Z,28.30
2018-07-05T14:36:38.676Z,28.40
2018-07-05T14:39:18.810Z,28.50
2018-07-05T14:41:58.690Z,28.60
2018-07-05T14:44:41.838Z,28.40
2018-07-05T14:47:22.098Z,28.40
2018-07-05T14:50:02.144Z,28.50
2018-07-05T14:52:42.174Z,28.70
2018-07-05T14:55:22.337Z,28.50
2018-07-05T14:58:02.512Z,28.40
2018-07-05T15:00:42.510Z,28.60
2018-07-05T15:03:22.650Z,28.50
2018-07-05T15:06:02.686Z,28.40
2018-07-05T15:08:42.794Z,28.30
2018-07-05T15:11:22.909Z,28.20
2018-07-05T15:14:02.945Z,28.30
2018-07-05T15:16:42.274Z,28.20
2018-07-05T15:19:22.278Z,28.70
2018-07-05T15:22:02.500Z,28.60
2018-07-05T15:24:46.143Z,28.70
2018-07-05T15:27:26.342Z,28.80
2018-07-05T15:30:06.322Z,29.00
2018-07-05T15:32:46.456Z,29.10
2018-07-05T15:35:26.413Z,29.20
2018-07-05T15:38:06.704Z,29.20
2018-07-05T15:40:46.685Z,29.40
2018-07-05T15:43:26.704Z,29.30
2018-07-05T15:46:06.699Z,29.20
2018-07-05T15:48:46.781Z,28.80
2018-07-05T15:51:26.802Z,28.80
2018-07-05T15:54:06.940Z,28.70
2018-07-05T15:56:48.037Z,28.40
2018-07-05T15:59:28.172Z,27.90
2018-07-05T16:02:08.213Z,27.90
2018-07-05T16:04:47.546Z,27.90
2018-07-05T16:07:27.571Z,28.00
2018-07-05T16:10:07.745Z,28.20
2018-07-05T16:12:47.825Z,27.90
2018-07-05T16:15:27.822Z,27.80
2018-07-05T16:18:07.977Z,27.90
2018-07-05T16:20:48.125Z,27.80
2018-07-05T16:23:29.276Z,27.80
2018-07-05T16:26:09.512Z,27.90
2018-07-05T16:28:49.665Z,27.70
2018-07-05T16:31:30.078Z,27.60
2018-07-05T16:34:10.152Z,27.60
2018-07-05T16:36:50.307Z,27.70
2018-07-05T16:39:31.033Z,27.80
2018-07-05T16:42:10.965Z,27.90
2018-07-05T16:44:52.081Z,28.00
2018-07-05T16:47:32.140Z,28.00
2018-07-05T16:50:12.212Z,28.10
2018-07-05T16:52:52.230Z,28.10
2018-07-05T16:55:32.348Z,28.10
2018-07-05T16:58:12.458Z,27.90
2018-07-05T17:00:52.425Z,27.80
2018-07-05T17:03:32.593Z,27.50
2018-07-05T17:06:12.672Z,27.60
2018-07-05T17:08:52.692Z,27.50
2018-07-05T17:11:32.693Z,27.50
2018-07-05T17:14:12.864Z,27.60
2018-07-05T17:16:52.838Z,27.60
2018-07-05T17:19:32.105Z,27.60
2018-07-05T17:22:12.064Z,27.40
2018-07-05T17:24:52.513Z,27.30
2018-07-05T17:27:32.593Z,27.10
2018-07-05T17:30:12.743Z,27.10
2018-07-05T17:32:52.741Z,27.00
2018-07-05T17:35:32.955Z,27.10
2018-07-05T17:38:13.140Z,27.00
2018-07-05T17:40:53.181Z,26.90
2018-07-05T17:43:33.297Z,27.00
2018-07-05T17:46:14.334Z,27.10
2018-07-05T17:48:54.424Z,27.00
2018-07-05T17:51:34.572Z,26.90
2018-07-05T17:54:14.720Z,27.00
2018-07-05T17:56:54.084Z,27.00
2018-07-05T17:59:34.116Z,27.20
2018-07-05T18:02:14.225Z,26.90
2018-07-05T18:04:54.323Z,26.90
2018-07-05T18:07:35.080Z,26.80
2018-07-05T18:10:15.204Z,26.70
2018-07-05T18:12:55.422Z,26.70
2018-07-05T18:15:34.714Z,26.60
2018-07-05T18:18:15.027Z,26.60
2018-07-05T18:20:54.994Z,26.60
2018-07-05T18:23:35.100Z,26.50
2018-07-05T18:26:14.237Z,26.50
2018-07-05T18:28:54.237Z,26.30
2018-07-05T18:31:35.300Z,26.30
2018-07-05T18:34:19.491Z,26.30
2018-07-05T18:36:58.738Z,26.30
2018-07-05T18:39:38.822Z,25.90
2018-07-05T18:42:18.769Z,25.90
2018-07-05T18:44:58.923Z,25.80
2018-07-05T18:47:39.023Z,25.70
2018-07-05T18:50:19.126Z,25.60
2018-07-05T18:52:59.294Z,25.40
2018-07-05T18:55:39.464Z,25.30
2018-07-05T18:58:19.426Z,25.20
2018-07-05T19:01:00.174Z,25.20
2018-07-05T19:03:40.288Z,25.00
2018-07-05T19:06:21.723Z,24.90
2018-07-05T19:09:01.890Z,24.80
2018-07-05T19:11:41.830Z,24.80
2018-07-05T19:14:23.389Z,24.70
2018-07-05T19:17:03.336Z,24.70
2018-07-05T19:19:44.548Z,24.50
2018-07-05T19:22:24.517Z,24.30
2018-07-05T19:25:04.705Z,24.40
2018-07-05T19:27:44.623Z,24.30
2018-07-05T19:30:24.809Z,24.30
2018-07-05T19:33:05.013Z,24.10
2018-07-05T19:35:45.203Z,24.00
2018-07-05T19:38:25.124Z,24.00
2018-07-05T19:41:05.381Z,24.00
2018-07-05T19:43:45.620Z,24.00
2018-07-05T19:46:25.681Z,24.00
2018-07-05T19:49:05.832Z,24.00
2018-07-05T19:51:45.889Z,24.00
2018-07-05T19:54:26.051Z,24.00
2018-07-05T19:57:06.066Z,23.90
2018-07-05T19:59:46.128Z,23.90
2018-07-05T20:02:26.288Z,23.80
2018-07-05T20:05:06.161Z,23.70
2018-07-05T20:07:46.318Z,23.60
2018-07-05T20:10:26.349Z,23.60
2018-07-05T20:13:07.213Z,23.50
2018-07-05T20:15:47.326Z,23.60
2018-07-05T20:18:26.611Z,23.60
2018-07-05T20:21:06.612Z,23.50
2018-07-05T20:23:46.663Z,23.50
2018-07-05T20:26:26.628Z,23.40
2018-07-05T20:29:06.853Z,23.30
2018-07-05T20:31:46.893Z,23.10
2018-07-05T20:34:26.261Z,23.10
2018-07-05T20:37:06.144Z,23.00
2018-07-05T20:39:46.353Z,23.00
2018-07-05T20:42:26.409Z,22.80
2018-07-05T20:45:06.582Z,22.80
2018-07-05T20:47:46.546Z,22.70
2018-07-05T20:50:26.432Z,22.80
2018-07-05T20:53:06.704Z,22.80
2018-07-05T20:55:46.713Z,22.60
2018-07-05T20:58:26.845Z,22.70
2018-07-05T21:01:08.169Z,22.70
2018-07-05T21:03:48.296Z,22.60
2018-07-05T21:06:28.998Z,22.60
2018-07-05T21:09:09.026Z,22.70
2018-07-05T21:11:49.160Z,22.60
2018-07-05T21:14:32.843Z,22.60
2018-07-05T21:17:13.036Z,22.50
2018-07-05T21:19:56.793Z,22.40
2018-07-05T21:22:36.774Z,22.40
2018-07-05T21:25:18.956Z,22.40
2018-07-05T21:27:58.981Z,22.30
2018-07-05T21:30:40.009Z,22.30
2018-07-05T21:33:20.204Z,22.10
2018-07-05T21:36:01.419Z,22.10
2018-07-05T21:38:41.408Z,22.00
2018-07-05T21:41:22.593Z,22.00
2018-07-05T21:44:02.760Z,21.90
2018-07-05T21:46:42.921Z,21.90
2018-07-05T21:49:28.682Z,21.80
2018-07-05T21:52:08.747Z,21.90
2018-07-05T21:54:48.865Z,21.80
2018-07-05T21:57:32.427Z,21.60
2018-07-05T22:00:12.573Z,21.50
2018-07-05T22:02:52.733Z,21.50
2018-07-05T22:05:32.724Z,21.60
2018-07-05T22:08:12.884Z,21.50
2018-07-05T22:10:52.868Z,21.50
2018-07-05T22:13:32.964Z,21.40
2018-07-05T22:16:13.168Z,21.40
2018-07-05T22:19:08.153Z,21.50
2018-07-05T22:21:48.209Z,21.30
2018-07-05T22:24:37.743Z,21.40
2018-07-05T22:27:17.894Z,21.30
2018-07-05T22:30:15.516Z,21.30
2018-07-05T22:32:55.617Z,21.20
2018-07-05T22:35:35.531Z,21.20
2018-07-05T22:38:15.765Z,21.20
2018-07-05T22:40:55.765Z,21.20
2018-07-05T22:43:36.072Z,21.10
2018-07-05T22:46:16.104Z,21.20
2018-07-05T22:48:56.290Z,21.00
2018-07-05T22:51:36.766Z,20.90
2018-07-05T22:54:16.735Z,20.80
2018-07-05T22:56:56.763Z,20.80
2018-07-05T22:59:37.020Z,20.80
2018-07-05T23:02:17.065Z,20.90
2018-07-05T23:05:00.403Z,20.80
2018-07-05T23:07:40.602Z,20.70
2018-07-05T23:10:21.834Z,20.70
2018-07-05T23:13:01.897Z,20.60
2018-07-05T23:15:42.098Z,20.50
2018-07-05T23:18:22.185Z,20.50
2018-07-05T23:21:02.282Z,20.50
2018-07-05T23:23:42.312Z,20.50
2018-07-05T23:26:22.572Z,20.40
2018-07-05T23:29:02.637Z,20.60
2018-07-05T23:31:42.926Z,20.60
2018-07-05T23:34:22.414Z,20.60
2018-07-05T23:37:02.289Z,20.60
2018-07-05T23:39:42.407Z,20.70
2018-07-05T23:42:22.572Z,20.70
2018-07-05T23:45:02.469Z,20.70
2018-07-05T23:47:42.613Z,20.60
2018-07-05T23:50:22.769Z,20.50
2018-07-05T23:53:02.837Z,20.30
2018-07-05T23:55:42.954Z,20.40
2018-07-05T23:58:23.192Z,20.50
